sensor_id;sensor_type;location;lat;lon;timestamp;P1;durP1;ratioP1;P2;durP2;ratioP2
57573;SDS011;63722;48.858;21.906;2023-04-01T00:00:26;2.20;;;2.10;;
57573;SDS011;63722;48.858;21.906;2023-04-01T00:02:52;2.40;;;2.30;;
57573;SDS011;63722;48.858;21.906;2023-04-01T00:05:17;2.58;;;2.42;;
57573;SDS011;63722;48.858;21.906;2023-04-01T00:07:42;2.60;;;2.50;;
57573;SDS011;63722;48.858;21.906;2023-04-01T00:10:09;2.33;;;2.22;;
57573;SDS011;63722;48.858;21.906;2023-04-01T00:12:36;2.80;;;2.50;;
57573;SDS011;63722;48.858;21.906;2023-04-01T00:15:03;2.65;;;2.55;;
57573;SDS011;63722;48.858;21.906;2023-04-01T00:17:30;2.10;;;2.00;;
57573;SDS011;63722;48.858;21.906;2023-04-01T00:19:55;2.53;;;2.42;;
57573;SDS011;63722;48.858;21.906;2023-04-01T00:22:21;2.63;;;2.53;;
57573;SDS011;63722;48.858;21.906;2023-04-01T00:24:47;2.22;;;2.13;;
57573;SDS011;63722;48.858;21.906;2023-04-01T00:27:13;2.85;;;2.40;;
57573;SDS011;63722;48.858;21.906;2023-04-01T00:29:41;2.33;;;2.22;;
57573;SDS011;63722;48.858;21.906;2023-04-01T00:32:10;2.33;;;2.22;;
57573;SDS011;63722;48.858;21.906;2023-04-01T00:34:36;2.00;;;1.90;;
57573;SDS011;63722;48.858;21.906;2023-04-01T00:37:01;2.25;;;2.15;;
57573;SDS011;63722;48.858;21.906;2023-04-01T00:39:30;2.10;;;2.00;;
57573;SDS011;63722;48.858;21.906;2023-04-01T00:41:57;2.30;;;2.10;;
57573;SDS011;63722;48.858;21.906;2023-04-01T00:44:24;2.10;;;2.00;;
57573;SDS011;63722;48.858;21.906;2023-04-01T00:46:51;2.10;;;2.00;;
57573;SDS011;63722;48.858;21.906;2023-04-01T00:49:18;2.10;;;2.00;;
57573;SDS011;63722;48.858;21.906;2023-04-01T00:51:48;2.13;;;2.03;;
57573;SDS011;63722;48.858;21.906;2023-04-01T00:54:16;2.25;;;2.15;;
57573;SDS011;63722;48.858;21.906;2023-04-01T00:56:51;1.90;;;1.80;;
57573;SDS011;63722;48.858;21.906;2023-04-01T00:59:31;2.13;;;2.03;;
57573;SDS011;63722;48.858;21.906;2023-04-01T01:02:04;1.73;;;1.73;;
57573;SDS011;63722;48.858;21.906;2023-04-01T01:04:33;2.30;;;2.20;;
57573;SDS011;63722;48.858;21.906;2023-04-01T01:16:27;2.35;;;2.25;;
57573;SDS011;63722;48.858;21.906;2023-04-01T01:24:22;2.00;;;1.90;;
57573;SDS011;63722;48.858;21.906;2023-04-01T01:27:03;2.30;;;2.20;;
57573;SDS011;63722;48.858;21.906;2023-04-01T01:37:13;2.10;;;2.00;;
57573;SDS011;63722;48.858;21.906;2023-04-01T01:39:41;1.95;;;1.85;;
57573;SDS011;63722;48.858;21.906;2023-04-01T01:42:09;1.83;;;1.73;;
57573;SDS011;63722;48.858;21.906;2023-04-01T01:44:40;2.30;;;2.20;;
57573;SDS011;63722;48.858;21.906;2023-04-01T01:47:08;1.90;;;1.80;;
57573;SDS011;63722;48.858;21.906;2023-04-01T01:49:34;1.98;;;1.88;;
57573;SDS011;63722;48.858;21.906;2023-04-01T01:52:01;1.83;;;1.73;;
57573;SDS011;63722;48.858;21.906;2023-04-01T01:54:26;2.10;;;2.00;;
57573;SDS011;63722;48.858;21.906;2023-04-01T01:56:54;2.28;;;2.17;;
57573;SDS011;63722;48.858;21.906;2023-04-01T01:59:25;2.03;;;1.92;;
57573;SDS011;63722;48.858;21.906;2023-04-01T02:01:54;1.92;;;1.83;;
57573;SDS011;63722;48.858;21.906;2023-04-01T02:04:22;2.00;;;1.90;;
57573;SDS011;63722;48.858;21.906;2023-04-01T02:07:02;2.17;;;2.08;;
57573;SDS011;63722;48.858;21.906;2023-04-01T02:09:31;1.88;;;1.77;;
57573;SDS011;63722;48.858;21.906;2023-04-01T02:11:59;2.10;;;2.00;;
57573;SDS011;63722;48.858;21.906;2023-04-01T02:17:17;1.90;;;1.80;;
57573;SDS011;63722;48.858;21.906;2023-04-01T02:19:51;2.13;;;2.03;;
57573;SDS011;63722;48.858;21.906;2023-04-01T02:22:21;2.10;;;2.00;;
57573;SDS011;63722;48.858;21.906;2023-04-01T02:24:51;1.80;;;1.70;;
57573;SDS011;63722;48.858;21.906;2023-04-01T02:27:18;2.00;;;1.90;;
57573;SDS011;63722;48.858;21.906;2023-04-01T02:29:45;2.13;;;2.03;;
57573;SDS011;63722;48.858;21.906;2023-04-01T02:32:10;2.17;;;2.08;;
57573;SDS011;63722;48.858;21.906;2023-04-01T02:34:38;2.17;;;2.08;;
57573;SDS011;63722;48.858;21.906;2023-04-01T02:37:03;1.95;;;1.85;;
57573;SDS011;63722;48.858;21.906;2023-04-01T02:39:29;2.08;;;1.98;;
57573;SDS011;63722;48.858;21.906;2023-04-01T02:41:54;2.00;;;1.90;;
57573;SDS011;63722;48.858;21.906;2023-04-01T02:44:20;1.80;;;1.70;;
57573;SDS011;63722;48.858;21.906;2023-04-01T02:46:45;1.83;;;1.73;;
57573;SDS011;63722;48.858;21.906;2023-04-01T02:49:11;2.03;;;1.92;;
57573;SDS011;63722;48.858;21.906;2023-04-01T02:51:36;2.08;;;1.98;;
57573;SDS011;63722;48.858;21.906;2023-04-01T02:54:02;1.60;;;1.50;;
57573;SDS011;63722;48.858;21.906;2023-04-01T02:56:28;1.80;;;1.70;;
57573;SDS011;63722;48.858;21.906;2023-04-01T02:58:54;2.10;;;2.00;;
57573;SDS011;63722;48.858;21.906;2023-04-01T03:01:21;2.05;;;1.95;;
57573;SDS011;63722;48.858;21.906;2023-04-01T03:03:47;2.17;;;2.08;;
57573;SDS011;63722;48.858;21.906;2023-04-01T03:06:13;2.17;;;2.08;;
57573;SDS011;63722;48.858;21.906;2023-04-01T03:08:40;1.83;;;1.73;;
57573;SDS011;63722;48.858;21.906;2023-04-01T03:11:07;1.65;;;1.55;;
57573;SDS011;63722;48.858;21.906;2023-04-01T03:13:33;1.90;;;1.80;;
57573;SDS011;63722;48.858;21.906;2023-04-01T03:15:59;1.98;;;1.88;;
57573;SDS011;63722;48.858;21.906;2023-04-01T03:18:24;2.03;;;1.92;;
57573;SDS011;63722;48.858;21.906;2023-04-01T03:20:50;2.17;;;1.92;;
57573;SDS011;63722;48.858;21.906;2023-04-01T03:23:15;2.08;;;1.98;;
57573;SDS011;63722;48.858;21.906;2023-04-01T03:25:42;1.98;;;1.88;;
57573;SDS011;63722;48.858;21.906;2023-04-01T03:28:08;1.60;;;1.58;;
57573;SDS011;63722;48.858;21.906;2023-04-01T03:30:34;2.05;;;1.95;;
57573;SDS011;63722;48.858;21.906;2023-04-01T03:32:59;2.30;;;2.20;;
57573;SDS011;63722;48.858;21.906;2023-04-01T03:35:25;1.83;;;1.73;;
57573;SDS011;63722;48.858;21.906;2023-04-01T03:37:52;1.90;;;1.80;;
57573;SDS011;63722;48.858;21.906;2023-04-01T03:40:17;2.17;;;2.08;;
57573;SDS011;63722;48.858;21.906;2023-04-01T03:42:43;1.70;;;1.60;;
57573;SDS011;63722;48.858;21.906;2023-04-01T03:45:09;2.00;;;1.90;;
57573;SDS011;63722;48.858;21.906;2023-04-01T03:47:34;2.55;;;1.60;;
57573;SDS011;63722;48.858;21.906;2023-04-01T03:50:00;2.10;;;2.00;;
57573;SDS011;63722;48.858;21.906;2023-04-01T03:52:26;1.83;;;1.73;;
57573;SDS011;63722;48.858;21.906;2023-04-01T03:54:51;1.70;;;1.60;;
57573;SDS011;63722;48.858;21.906;2023-04-01T03:57:16;1.42;;;1.42;;
57573;SDS011;63722;48.858;21.906;2023-04-01T03:59:42;1.92;;;1.83;;
57573;SDS011;63722;48.858;21.906;2023-04-01T04:02:07;1.77;;;1.67;;
57573;SDS011;63722;48.858;21.906;2023-04-01T04:04:32;1.90;;;1.80;;
57573;SDS011;63722;48.858;21.906;2023-04-01T04:06:58;1.95;;;1.85;;
57573;SDS011;63722;48.858;21.906;2023-04-01T04:09:24;1.50;;;1.50;;
57573;SDS011;63722;48.858;21.906;2023-04-01T04:11:49;1.70;;;1.60;;
57573;SDS011;63722;48.858;21.906;2023-04-01T04:14:15;1.80;;;1.70;;
57573;SDS011;63722;48.858;21.906;2023-04-01T04:16:41;1.90;;;1.80;;
57573;SDS011;63722;48.858;21.906;2023-04-01T04:19:06;2.00;;;1.90;;
57573;SDS011;63722;48.858;21.906;2023-04-01T04:21:33;1.80;;;1.70;;
57573;SDS011;63722;48.858;21.906;2023-04-01T04:23:59;1.75;;;1.65;;
57573;SDS011;63722;48.858;21.906;2023-04-01T04:26:25;1.98;;;1.88;;
57573;SDS011;63722;48.858;21.906;2023-04-01T04:28:50;1.38;;;1.38;;
57573;SDS011;63722;48.858;21.906;2023-04-01T04:31:19;2.25;;;1.67;;
57573;SDS011;63722;48.858;21.906;2023-04-01T04:33:46;1.88;;;1.77;;
57573;SDS011;63722;48.858;21.906;2023-04-01T04:36:11;1.83;;;1.73;;
57573;SDS011;63722;48.858;21.906;2023-04-01T04:38:37;1.75;;;1.70;;
57573;SDS011;63722;48.858;21.906;2023-04-01T04:41:02;1.70;;;1.60;;
57573;SDS011;63722;48.858;21.906;2023-04-01T04:43:28;1.90;;;1.80;;
57573;SDS011;63722;48.858;21.906;2023-04-01T04:45:53;1.95;;;1.85;;
57573;SDS011;63722;48.858;21.906;2023-04-01T04:48:18;1.65;;;1.65;;
57573;SDS011;63722;48.858;21.906;2023-04-01T04:50:48;1.50;;;1.40;;
57573;SDS011;63722;48.858;21.906;2023-04-01T04:53:15;1.70;;;1.70;;
57573;SDS011;63722;48.858;21.906;2023-04-01T04:55:46;1.83;;;1.73;;
57573;SDS011;63722;48.858;21.906;2023-04-01T04:58:12;1.83;;;1.73;;
57573;SDS011;63722;48.858;21.906;2023-04-01T05:00:38;1.42;;;1.42;;
57573;SDS011;63722;48.858;21.906;2023-04-01T05:03:03;1.70;;;1.60;;
57573;SDS011;63722;48.858;21.906;2023-04-01T05:05:28;1.70;;;1.60;;
57573;SDS011;63722;48.858;21.906;2023-04-01T05:07:54;1.70;;;1.60;;
57573;SDS011;63722;48.858;21.906;2023-04-01T05:10:19;1.83;;;1.73;;
57573;SDS011;63722;48.858;21.906;2023-04-01T05:12:46;1.75;;;1.65;;
57573;SDS011;63722;48.858;21.906;2023-04-01T05:15:11;1.95;;;1.85;;
57573;SDS011;63722;48.858;21.906;2023-04-01T05:17:37;1.52;;;1.42;;
57573;SDS011;63722;48.858;21.906;2023-04-01T05:20:02;1.55;;;1.55;;
57573;SDS011;63722;48.858;21.906;2023-04-01T05:22:28;1.92;;;1.83;;
57573;SDS011;63722;48.858;21.906;2023-04-01T05:24:53;1.60;;;1.60;;
57573;SDS011;63722;48.858;21.906;2023-04-01T05:27:19;1.70;;;1.70;;
57573;SDS011;63722;48.858;21.906;2023-04-01T05:29:44;1.75;;;1.65;;
57573;SDS011;63722;48.858;21.906;2023-04-01T05:32:09;1.52;;;1.42;;
57573;SDS011;63722;48.858;21.906;2023-04-01T05:34:35;1.90;;;1.60;;
57573;SDS011;63722;48.858;21.906;2023-04-01T05:37:00;1.25;;;1.25;;
57573;SDS011;63722;48.858;21.906;2023-04-01T05:39:26;1.52;;;1.42;;
57573;SDS011;63722;48.858;21.906;2023-04-01T05:41:51;1.75;;;1.65;;
57573;SDS011;63722;48.858;21.906;2023-04-01T05:44:17;1.70;;;1.60;;
57573;SDS011;63722;48.858;21.906;2023-04-01T05:46:42;1.70;;;1.60;;
57573;SDS011;63722;48.858;21.906;2023-04-01T05:49:08;1.75;;;1.65;;
57573;SDS011;63722;48.858;21.906;2023-04-01T05:51:33;1.20;;;1.20;;
57573;SDS011;63722;48.858;21.906;2023-04-01T05:53:59;1.80;;;1.70;;
57573;SDS011;63722;48.858;21.906;2023-04-01T05:56:24;1.40;;;1.40;;
57573;SDS011;63722;48.858;21.906;2023-04-01T05:58:51;1.52;;;1.42;;
57573;SDS011;63722;48.858;21.906;2023-04-01T06:01:18;2.00;;;1.90;;
57573;SDS011;63722;48.858;21.906;2023-04-01T06:03:44;1.35;;;1.35;;
57573;SDS011;63722;48.858;21.906;2023-04-01T06:06:20;1.80;;;1.70;;
57573;SDS011;63722;48.858;21.906;2023-04-01T06:08:52;1.20;;;1.20;;
57573;SDS011;63722;48.858;21.906;2023-04-01T06:36:25;1.85;;;1.75;;
57573;SDS011;63722;48.858;21.906;2023-04-01T06:38:56;1.52;;;1.42;;
57573;SDS011;63722;48.858;21.906;2023-04-01T06:41:52;2.13;;;1.63;;
57573;SDS011;63722;48.858;21.906;2023-04-01T06:47:37;1.60;;;1.50;;
57573;SDS011;63722;48.858;21.906;2023-04-01T06:55:51;1.40;;;1.40;;
57573;SDS011;63722;48.858;21.906;2023-04-01T06:58:29;1.42;;;1.42;;
57573;SDS011;63722;48.858;21.906;2023-04-01T07:01:01;1.40;;;1.40;;
57573;SDS011;63722;48.858;21.906;2023-04-01T07:03:35;1.50;;;1.50;;
57573;SDS011;63722;48.858;21.906;2023-04-01T07:06:06;1.30;;;1.30;;
57573;SDS011;63722;48.858;21.906;2023-04-01T07:08:37;1.38;;;1.38;;
57573;SDS011;63722;48.858;21.906;2023-04-01T07:11:06;1.40;;;1.40;;
57573;SDS011;63722;48.858;21.906;2023-04-01T07:16:34;1.25;;;1.25;;
57573;SDS011;63722;48.858;21.906;2023-04-01T07:19:08;1.45;;;1.35;;
57573;SDS011;63722;48.858;21.906;2023-04-01T07:21:48;1.27;;;1.27;;
57573;SDS011;63722;48.858;21.906;2023-04-01T07:24:36;1.23;;;1.23;;
57573;SDS011;63722;48.858;21.906;2023-04-01T07:27:08;1.50;;;1.40;;
57573;SDS011;63722;48.858;21.906;2023-04-01T07:29:35;1.67;;;1.52;;
57573;SDS011;63722;48.858;21.906;2023-04-01T07:32:17;1.10;;;1.10;;
57573;SDS011;63722;48.858;21.906;2023-04-01T07:37:29;1.85;;;1.75;;
57573;SDS011;63722;48.858;21.906;2023-04-01T07:42:43;1.50;;;1.40;;
57573;SDS011;63722;48.858;21.906;2023-04-01T07:51:04;1.45;;;1.35;;
57573;SDS011;63722;48.858;21.906;2023-04-01T07:53:39;1.38;;;1.38;;
57573;SDS011;63722;48.858;21.906;2023-04-01T07:56:28;1.33;;;1.33;;
57573;SDS011;63722;48.858;21.906;2023-04-01T08:04:16;1.45;;;1.45;;
57573;SDS011;63722;48.858;21.906;2023-04-01T08:09:35;1.40;;;1.40;;
57573;SDS011;63722;48.858;21.906;2023-04-01T08:17:28;1.70;;;1.60;;
57573;SDS011;63722;48.858;21.906;2023-04-01T08:21:03;1.48;;;1.48;;
57573;SDS011;63722;48.858;21.906;2023-04-01T08:26:05;1.40;;;1.40;;
57573;SDS011;63722;48.858;21.906;2023-04-01T08:31:11;1.27;;;1.27;;
57573;SDS011;63722;48.858;21.906;2023-04-01T08:33:48;1.20;;;1.20;;
57573;SDS011;63722;48.858;21.906;2023-04-01T08:36:22;1.25;;;1.25;;
57573;SDS011;63722;48.858;21.906;2023-04-01T08:55:20;1.25;;;1.20;;
57573;SDS011;63722;48.858;21.906;2023-04-01T09:00:37;1.60;;;1.50;;
57573;SDS011;63722;48.858;21.906;2023-04-01T09:03:13;1.23;;;1.23;;
57573;SDS011;63722;48.858;21.906;2023-04-01T09:08:31;1.40;;;1.40;;
57573;SDS011;63722;48.858;21.906;2023-04-01T09:11:05;1.15;;;1.15;;
57573;SDS011;63722;48.858;21.906;2023-04-01T09:27:17;1.48;;;1.38;;
57573;SDS011;63722;48.858;21.906;2023-04-01T09:29:50;1.20;;;1.20;;
57573;SDS011;63722;48.858;21.906;2023-04-01T09:32:50;1.60;;;1.50;;
57573;SDS011;63722;48.858;21.906;2023-04-01T09:35:47;1.30;;;1.30;;
57573;SDS011;63722;48.858;21.906;2023-04-01T09:38:22;1.67;;;1.38;;
57573;SDS011;63722;48.858;21.906;2023-04-01T09:41:28;1.20;;;1.20;;
57573;SDS011;63722;48.858;21.906;2023-04-01T09:52:10;1.23;;;1.23;;
57573;SDS011;63722;48.858;21.906;2023-04-01T10:00:07;1.30;;;1.30;;
57573;SDS011;63722;48.858;21.906;2023-04-01T10:22:16;1.40;;;1.30;;
57573;SDS011;63722;48.858;21.906;2023-04-01T10:25:11;1.00;;;1.00;;
57573;SDS011;63722;48.858;21.906;2023-04-01T11:07:22;1.13;;;1.13;;
57573;SDS011;63722;48.858;21.906;2023-04-01T11:13:47;1.20;;;1.20;;
57573;SDS011;63722;48.858;21.906;2023-04-01T11:25:04;1.00;;;1.00;;
57573;SDS011;63722;48.858;21.906;2023-04-01T11:28:01;1.02;;;1.02;;
57573;SDS011;63722;48.858;21.906;2023-04-01T11:30:33;1.13;;;1.13;;
57573;SDS011;63722;48.858;21.906;2023-04-01T11:33:07;1.67;;;1.10;;
57573;SDS011;63722;48.858;21.906;2023-04-01T11:46:48;1.27;;;1.27;;
57573;SDS011;63722;48.858;21.906;2023-04-01T11:51:41;1.20;;;1.20;;
57573;SDS011;63722;48.858;21.906;2023-04-01T12:07:53;1.20;;;1.20;;
57573;SDS011;63722;48.858;21.906;2023-04-01T12:13:23;1.20;;;1.20;;
57573;SDS011;63722;48.858;21.906;2023-04-01T12:16:11;1.40;;;1.40;;
57573;SDS011;63722;48.858;21.906;2023-04-01T12:18:59;0.90;;;0.90;;
57573;SDS011;63722;48.858;21.906;2023-04-01T12:29:54;1.00;;;1.00;;
57573;SDS011;63722;48.858;21.906;2023-04-01T12:32:47;1.10;;;1.10;;
57573;SDS011;63722;48.858;21.906;2023-04-01T12:38:20;1.20;;;1.20;;
57573;SDS011;63722;48.858;21.906;2023-04-01T13:03:03;1.25;;;1.15;;
57573;SDS011;63722;48.858;21.906;2023-04-01T13:21:25;0.90;;;0.90;;
57573;SDS011;63722;48.858;21.906;2023-04-01T13:29:21;1.10;;;1.10;;
57573;SDS011;63722;48.858;21.906;2023-04-01T13:32:11;1.00;;;1.00;;
57573;SDS011;68988;49.000;21.242;2023-04-01T13:37:42;1.20;;;1.10;;
57573;SDS011;68988;49.000;21.242;2023-04-01T13:43:11;1.40;;;1.30;;
57573;SDS011;68988;49.000;21.242;2023-04-01T13:48:29;1.02;;;1.02;;
57573;SDS011;68988;49.000;21.242;2023-04-01T14:02:01;1.30;;;1.20;;
57573;SDS011;68988;49.000;21.242;2023-04-01T14:15:56;1.45;;;1.35;;
57573;SDS011;68988;49.000;21.242;2023-04-01T14:21:19;1.00;;;1.00;;
57573;SDS011;68988;49.000;21.242;2023-04-01T14:23:59;0.98;;;0.98;;
57573;SDS011;68988;49.000;21.242;2023-04-01T14:26:50;1.15;;;1.10;;
57573;SDS011;68988;49.000;21.242;2023-04-01T14:29:48;1.05;;;1.05;;
57573;SDS011;68988;49.000;21.242;2023-04-01T14:35:14;1.08;;;1.08;;
57573;SDS011;68988;49.000;21.242;2023-04-01T14:51:55;0.90;;;0.90;;
57573;SDS011;68988;49.000;21.242;2023-04-01T14:54:32;1.00;;;0.90;;
57573;SDS011;68988;49.000;21.242;2023-04-01T14:59:34;1.00;;;1.00;;
57573;SDS011;68988;49.000;21.242;2023-04-01T15:02:14;0.93;;;0.93;;
57573;SDS011;68988;49.000;21.242;2023-04-01T15:24:24;1.08;;;1.08;;
57573;SDS011;68988;49.000;21.242;2023-04-01T15:27:17;1.08;;;1.08;;
57573;SDS011;68988;49.000;21.242;2023-04-01T15:29:54;1.17;;;1.17;;
57573;SDS011;68988;49.000;21.242;2023-04-01T15:35:50;0.80;;;0.80;;
57573;SDS011;68988;49.000;21.242;2023-04-01T15:38:57;1.27;;;1.27;;
57573;SDS011;68988;49.000;21.242;2023-04-01T15:44:42;1.00;;;1.00;;
57573;SDS011;68988;49.000;21.242;2023-04-01T16:00:49;1.00;;;1.00;;
57573;SDS011;68988;49.000;21.242;2023-04-01T16:16:47;1.13;;;1.02;;
57573;SDS011;68988;49.000;21.242;2023-04-01T16:22:16;0.85;;;0.85;;
57573;SDS011;68988;49.000;21.242;2023-04-01T16:27:42;0.90;;;0.90;;
57573;SDS011;68988;49.000;21.242;2023-04-01T16:43:39;0.90;;;0.90;;
57573;SDS011;68988;49.000;21.242;2023-04-01T16:48:59;0.88;;;0.88;;
57573;SDS011;68988;49.000;21.242;2023-04-01T16:51:26;0.90;;;0.90;;
57573;SDS011;68988;49.000;21.242;2023-04-01T16:54:13;0.98;;;0.98;;
57573;SDS011;68988;49.000;21.242;2023-04-01T16:56:50;0.80;;;0.80;;
57573;SDS011;68988;49.000;21.242;2023-04-01T16:59:22;0.90;;;0.90;;
57573;SDS011;68988;49.000;21.242;2023-04-01T17:02:02;1.02;;;1.02;;
57573;SDS011;68988;49.000;21.242;2023-04-01T17:04:37;0.80;;;0.80;;
57573;SDS011;68988;49.000;21.242;2023-04-01T17:24:25;1.10;;;1.10;;
57573;SDS011;68988;49.000;21.242;2023-04-01T17:26:48;1.05;;;1.05;;
57573;SDS011;68988;49.000;21.242;2023-04-01T17:32:29;1.92;;;1.02;;
57573;SDS011;68988;49.000;21.242;2023-04-01T17:35:14;1.00;;;1.00;;
57573;SDS011;68988;49.000;21.242;2023-04-01T17:37:45;1.00;;;1.00;;
57573;SDS011;68988;49.000;21.242;2023-04-01T17:40:48;0.90;;;0.90;;
57573;SDS011;68988;49.000;21.242;2023-04-01T17:43:44;0.88;;;0.88;;
57573;SDS011;68988;49.000;21.242;2023-04-01T17:51:53;0.82;;;0.82;;
57573;SDS011;68988;49.000;21.242;2023-04-01T18:00:02;1.00;;;0.93;;
57573;SDS011;68988;49.000;21.242;2023-04-01T18:05:27;0.80;;;0.80;;
57573;SDS011;68988;49.000;21.242;2023-04-01T18:18:59;1.02;;;1.02;;
57573;SDS011;68988;49.000;21.242;2023-04-01T18:26:44;1.00;;;1.00;;
57573;SDS011;68988;49.000;21.242;2023-04-01T18:37:37;0.80;;;0.80;;
57573;SDS011;68988;49.000;21.242;2023-04-01T18:43:12;0.82;;;0.82;;
57573;SDS011;68988;49.000;21.242;2023-04-01T18:48:46;0.82;;;0.82;;
57573;SDS011;68988;49.000;21.242;2023-04-01T18:54:19;0.82;;;0.82;;
57573;SDS011;68988;49.000;21.242;2023-04-01T18:57:01;0.85;;;0.85;;
57573;SDS011;68988;49.000;21.242;2023-04-01T18:59:35;0.85;;;0.85;;
57573;SDS011;68988;49.000;21.242;2023-04-01T19:02:15;1.20;;;0.90;;
57573;SDS011;68988;49.000;21.242;2023-04-01T19:04:43;0.70;;;0.70;;
57573;SDS011;68988;49.000;21.242;2023-04-01T19:10:21;1.00;;;1.00;;
57573;SDS011;68988;49.000;21.242;2023-04-01T19:20:51;1.65;;;0.80;;
57573;SDS011;68988;49.000;21.242;2023-04-01T19:26:17;0.75;;;0.75;;
57573;SDS011;68988;49.000;21.242;2023-04-01T19:37:02;1.00;;;1.00;;
57573;SDS011;68988;49.000;21.242;2023-04-01T19:42:16;2.05;;;0.90;;
57573;SDS011;68988;49.000;21.242;2023-04-01T19:50:27;0.88;;;0.88;;
57573;SDS011;68988;49.000;21.242;2023-04-01T19:53:47;0.90;;;0.90;;
57573;SDS011;68988;49.000;21.242;2023-04-01T19:56:07;0.70;;;0.70;;
57573;SDS011;68988;49.000;21.242;2023-04-01T19:58:53;0.98;;;0.90;;
57573;SDS011;68988;49.000;21.242;2023-04-01T20:01:41;0.68;;;0.68;;
57573;SDS011;68988;49.000;21.242;2023-04-01T20:04:20;0.80;;;0.80;;
57573;SDS011;68988;49.000;21.242;2023-04-01T20:07:09;0.70;;;0.70;;
57573;SDS011;68988;49.000;21.242;2023-04-01T20:09:48;0.80;;;0.80;;
57573;SDS011;68988;49.000;21.242;2023-04-01T20:15:19;0.77;;;0.77;;
57573;SDS011;68988;49.000;21.242;2023-04-01T20:17:46;0.60;;;0.60;;
57573;SDS011;68988;49.000;21.242;2023-04-01T20:20:20;0.90;;;0.90;;
57573;SDS011;68988;49.000;21.242;2023-04-01T20:25:32;0.93;;;0.93;;
57573;SDS011;68988;49.000;21.242;2023-04-01T20:31:20;0.80;;;0.80;;
57573;SDS011;68988;49.000;21.242;2023-04-01T20:39:48;0.95;;;0.95;;
57573;SDS011;68988;49.000;21.242;2023-04-01T20:51:05;0.90;;;0.90;;
57573;SDS011;68988;49.000;21.242;2023-04-01T20:53:35;0.90;;;0.90;;
57573;SDS011;68988;49.000;21.242;2023-04-01T20:56:12;0.98;;;0.98;;
57573;SDS011;68988;49.000;21.242;2023-04-01T21:01:59;0.70;;;0.70;;
57573;SDS011;68988;49.000;21.242;2023-04-01T21:10:29;0.88;;;0.88;;
57573;SDS011;68988;49.000;21.242;2023-04-01T21:32:14;0.80;;;0.80;;
57573;SDS011;68988;49.000;21.242;2023-04-01T21:40:22;0.75;;;0.75;;
57573;SDS011;68988;49.000;21.242;2023-04-01T21:48:41;0.90;;;0.90;;
57573;SDS011;68988;49.000;21.242;2023-04-01T22:08:44;0.90;;;0.90;;
57573;SDS011;68988;49.000;21.242;2023-04-01T22:11:26;0.98;;;0.98;;
57573;SDS011;68988;49.000;21.242;2023-04-01T22:16:57;0.70;;;0.70;;
57573;SDS011;68988;49.000;21.242;2023-04-01T22:22:28;0.88;;;0.88;;
57573;SDS011;68988;49.000;21.242;2023-04-01T22:25:15;0.90;;;0.90;;
57573;SDS011;68988;49.000;21.242;2023-04-01T22:27:48;0.90;;;0.90;;
57573;SDS011;68988;49.000;21.242;2023-04-01T22:39:07;0.70;;;0.70;;
57573;SDS011;68988;49.000;21.242;2023-04-01T22:47:55;0.85;;;0.85;;
57573;SDS011;68988;49.000;21.242;2023-04-01T22:50:09;0.80;;;0.80;;
57573;SDS011;68988;49.000;21.242;2023-04-01T22:52:40;0.70;;;0.70;;
57573;SDS011;68988;49.000;21.242;2023-04-01T22:55:16;0.75;;;0.75;;
57573;SDS011;68988;49.000;21.242;2023-04-01T22:57:57;0.75;;;0.75;;
57573;SDS011;68988;49.000;21.242;2023-04-01T23:00:37;0.80;;;0.80;;
57573;SDS011;68988;49.000;21.242;2023-04-01T23:03:14;0.85;;;0.85;;
57573;SDS011;68988;49.000;21.242;2023-04-01T23:05:52;1.00;;;1.00;;
57573;SDS011;68988;49.000;21.242;2023-04-01T23:08:37;0.88;;;0.88;;
57573;SDS011;68988;49.000;21.242;2023-04-01T23:11:09;0.77;;;0.77;;
57573;SDS011;68988;49.000;21.242;2023-04-01T23:13:44;0.80;;;0.80;;
57573;SDS011;68988;49.000;21.242;2023-04-01T23:16:13;0.90;;;0.90;;
57573;SDS011;68988;49.000;21.242;2023-04-01T23:18:49;2.55;;;0.80;;
57573;SDS011;68988;49.000;21.242;2023-04-01T23:27:02;1.00;;;1.00;;
57573;SDS011;68988;49.000;21.242;2023-04-01T23:29:35;0.70;;;0.70;;
57573;SDS011;68988;49.000;21.242;2023-04-01T23:32:03;0.80;;;0.80;;
57573;SDS011;68988;49.000;21.242;2023-04-01T23:34:30;0.90;;;0.90;;
57573;SDS011;68988;49.000;21.242;2023-04-01T23:37:12;0.80;;;0.80;;
57573;SDS011;68988;49.000;21.242;2023-04-01T23:39:45;0.88;;;0.88;;
57573;SDS011;68988;49.000;21.242;2023-04-01T23:44:40;0.80;;;0.80;;
57573;SDS011;68988;49.000;21.242;2023-04-01T23:47:09;0.95;;;0.95;;
57573;SDS011;68988;49.000;21.242;2023-04-01T23:49:45;0.88;;;0.88;;
57573;SDS011;68988;49.000;21.242;2023-04-01T23:55:31;1.10;;;1.10;;
57573;SDS011;68988;49.000;21.242;2023-04-01T23:58:07;0.70;;;0.70;;
